createdAt,value
2023-05-09T00:00:11.656Z,47.77
2023-05-09T00:02:40.456Z,43.03
2023-05-09T00:05:10.060Z,38.37
2023-05-09T00:07:38.754Z,44.60
2023-05-09T00:10:08.323Z,39.23
2023-05-09T00:12:37.001Z,40.63
2023-05-09T00:15:08.441Z,36.57
2023-05-09T00:17:38.838Z,41.80
2023-05-09T00:20:12.591Z,40.23
2023-05-09T00:22:41.875Z,39.97
2023-05-09T00:25:11.839Z,41.27
2023-05-09T00:27:40.687Z,39.77
2023-05-09T00:30:11.205Z,38.27
2023-05-09T00:32:41.687Z,40.07
2023-05-09T00:35:11.013Z,38.67
2023-05-09T00:37:39.727Z,38.90
2023-05-09T00:40:09.481Z,41.83
2023-05-09T00:42:38.164Z,37.97
2023-05-09T00:45:08.053Z,37.97
2023-05-09T00:47:37.028Z,41.40
2023-05-09T00:50:08.972Z,42.73
2023-05-09T00:52:38.028Z,35.47
2023-05-09T00:55:08.682Z,37.43
2023-05-09T00:57:37.801Z,39.07
2023-05-09T01:00:13.231Z,34.30
2023-05-09T01:02:43.298Z,40.27
2023-05-09T01:05:14.068Z,33.60
2023-05-09T01:07:51.163Z,34.00
2023-05-09T01:10:26.926Z,38.50
2023-05-09T01:13:05.029Z,34.90
2023-05-09T01:15:38.073Z,33.23
2023-05-09T01:18:12.472Z,37.80
2023-05-09T01:20:46.091Z,36.30
2023-05-09T01:23:36.315Z,40.73
2023-05-09T01:26:07.093Z,38.57
2023-05-09T01:29:01.738Z,37.17
2023-05-09T01:31:34.483Z,38.73
2023-05-09T01:34:06.907Z,38.73
2023-05-09T01:36:38.353Z,36.60
2023-05-09T01:39:08.474Z,38.10
2023-05-09T01:41:39.384Z,35.07
2023-05-09T01:44:12.135Z,26.13
2023-05-09T01:46:43.615Z,34.47
2023-05-09T01:49:13.188Z,38.07
2023-05-09T01:51:44.167Z,37.10
2023-05-09T01:54:13.659Z,38.73
2023-05-09T01:56:43.696Z,35.10
2023-05-09T01:59:16.138Z,38.30
2023-05-09T02:01:47.787Z,37.03
2023-05-09T02:04:18.321Z,39.17
2023-05-09T02:06:50.916Z,38.13
2023-05-09T02:09:19.879Z,35.70
2023-05-09T02:11:48.461Z,37.70
2023-05-09T02:14:17.329Z,33.93
2023-05-09T02:16:47.442Z,36.63
2023-05-09T02:19:16.978Z,36.47
2023-05-09T02:21:45.795Z,37.77
2023-05-09T02:24:14.544Z,37.83
2023-05-09T02:26:43.942Z,38.50
2023-05-09T02:29:13.600Z,38.90
2023-05-09T02:31:43.666Z,38.57
2023-05-09T02:34:14.384Z,41.00
2023-05-09T02:36:43.308Z,38.20
2023-05-09T02:39:12.421Z,35.70
2023-05-09T02:41:41.081Z,36.43
2023-05-09T02:44:09.654Z,37.23
2023-05-09T02:46:38.290Z,37.73
2023-05-09T02:49:06.967Z,37.57
2023-05-09T02:51:37.034Z,34.07
2023-05-09T02:54:06.379Z,36.93
2023-05-09T02:56:35.372Z,39.23
2023-05-09T02:59:04.240Z,36.47
2023-05-09T03:01:32.946Z,36.93
2023-05-09T03:04:01.653Z,40.77
2023-05-09T03:06:30.762Z,35.27
2023-05-09T03:09:01.019Z,35.10
2023-05-09T03:11:30.775Z,33.43
2023-05-09T03:13:59.405Z,32.60
2023-05-09T03:16:28.167Z,37.70
2023-05-09T03:18:56.935Z,35.60
2023-05-09T03:21:25.911Z,36.03
2023-05-09T03:23:54.576Z,34.97
2023-05-09T03:26:24.615Z,34.67
2023-05-09T03:28:53.232Z,32.87
2023-05-09T03:31:21.914Z,32.57
2023-05-09T03:33:51.081Z,34.50
2023-05-09T03:36:19.720Z,35.93
2023-05-09T03:38:48.280Z,33.30
2023-05-09T03:41:18.754Z,37.20
2023-05-09T03:43:48.761Z,35.17
2023-05-09T03:46:17.460Z,34.90
2023-05-09T03:48:46.146Z,36.03
2023-05-09T03:51:14.872Z,34.13
2023-05-09T03:53:43.512Z,35.53
2023-05-09T03:56:12.250Z,32.90
2023-05-09T03:58:40.947Z,32.83
2023-05-09T04:01:11.375Z,35.10
2023-05-09T04:03:40.164Z,34.87
2023-05-09T04:06:09.173Z,36.83
2023-05-09T04:08:38.168Z,32.80
2023-05-09T04:11:06.891Z,34.53
2023-05-09T04:13:35.747Z,32.63
2023-05-09T04:16:04.550Z,32.13
2023-05-09T04:18:34.599Z,33.77
2023-05-09T04:21:03.306Z,36.00
2023-05-09T04:23:31.928Z,32.20
2023-05-09T04:26:01.002Z,33.33
2023-05-09T04:28:29.662Z,33.17
2023-05-09T04:30:58.698Z,33.27
2023-05-09T04:33:29.115Z,32.87
2023-05-09T04:35:59.241Z,33.90
2023-05-09T04:38:27.881Z,34.10
2023-05-09T04:40:56.428Z,32.27
2023-05-09T04:43:26.565Z,32.57
2023-05-09T04:45:55.246Z,35.93
2023-05-09T04:48:24.084Z,31.87
2023-05-09T04:50:53.072Z,31.60
2023-05-09T04:53:23.338Z,37.77
2023-05-09T04:55:53.305Z,31.83
2023-05-09T04:58:22.205Z,32.37
2023-05-09T05:00:51.512Z,31.87
2023-05-09T05:03:20.314Z,35.63
2023-05-09T05:05:48.973Z,33.40
2023-05-09T05:08:17.650Z,33.00
2023-05-09T05:10:47.687Z,36.47
2023-05-09T05:13:16.410Z,33.57
2023-05-09T05:15:45.201Z,31.57
2023-05-09T05:18:13.956Z,34.77
2023-05-09T05:20:42.912Z,34.00
2023-05-09T05:23:12.171Z,35.10
2023-05-09T05:25:40.898Z,30.03
2023-05-09T05:28:10.999Z,32.87
2023-05-09T05:30:41.177Z,33.73
2023-05-09T05:33:09.904Z,31.93
2023-05-09T05:35:38.559Z,33.60
2023-05-09T05:38:07.108Z,31.07
2023-05-09T05:40:35.737Z,32.77
2023-05-09T05:43:04.367Z,29.63
2023-05-09T05:45:34.506Z,33.87
2023-05-09T05:48:03.556Z,34.00
2023-05-09T05:50:32.321Z,34.97
2023-05-09T05:53:00.982Z,31.50
2023-05-09T05:55:29.659Z,31.33
2023-05-09T05:57:58.362Z,32.17
2023-05-09T06:00:27.133Z,32.50
2023-05-09T06:02:57.246Z,30.00
2023-05-09T06:05:26.045Z,32.20
2023-05-09T06:07:54.714Z,32.30
2023-05-09T06:10:23.992Z,31.63
2023-05-09T06:12:52.928Z,33.77
2023-05-09T06:15:23.605Z,31.70
2023-05-09T06:17:52.348Z,30.87
2023-05-09T06:20:22.540Z,31.00
2023-05-09T06:22:51.213Z,31.40
2023-05-09T06:25:19.774Z,29.93
2023-05-09T06:27:48.527Z,33.43
2023-05-09T06:30:25.754Z,33.07
2023-05-09T06:32:55.548Z,27.90
2023-05-09T06:35:25.763Z,31.43
2023-05-09T06:37:54.436Z,30.70
2023-05-09T06:40:23.493Z,30.57
2023-05-09T06:42:52.098Z,28.90
2023-05-09T06:45:20.814Z,28.67
2023-05-09T06:47:49.542Z,28.93
2023-05-09T06:50:18.168Z,31.13
2023-05-09T06:52:48.384Z,28.77
2023-05-09T06:55:17.345Z,28.80
2023-05-09T06:57:46.089Z,29.80
2023-05-09T07:00:16.238Z,30.23
2023-05-09T07:02:44.971Z,30.37
2023-05-09T07:05:13.757Z,30.30
2023-05-09T07:07:42.464Z,29.07
2023-05-09T07:10:13.083Z,29.57
2023-05-09T07:12:42.166Z,29.43
2023-05-09T07:15:12.198Z,29.17
2023-05-09T07:17:40.971Z,28.37
2023-05-09T07:20:10.339Z,27.57
2023-05-09T07:22:39.136Z,29.13
2023-05-09T07:25:09.736Z,27.93
2023-05-09T07:27:40.009Z,27.37
2023-05-09T07:30:10.239Z,28.90
2023-05-09T07:32:44.851Z,27.60
2023-05-09T07:35:13.745Z,27.33
2023-05-09T07:37:42.709Z,26.40
2023-05-09T07:40:14.892Z,28.77
2023-05-09T07:42:49.743Z,26.10
2023-05-09T07:45:19.944Z,27.80
2023-05-09T07:47:49.982Z,26.17
2023-05-09T07:50:18.698Z,26.50
2023-05-09T07:52:47.360Z,25.97
2023-05-09T07:55:16.474Z,26.50
2023-05-09T07:57:46.808Z,25.30
2023-05-09T08:00:16.578Z,24.80
2023-05-09T08:02:45.440Z,25.57
2023-05-09T08:05:14.423Z,25.63
2023-05-09T08:07:43.292Z,27.03
2023-05-09T08:10:12.377Z,26.77
2023-05-09T08:12:41.354Z,25.80
2023-05-09T08:15:12.634Z,25.93
2023-05-09T08:17:41.521Z,26.10
2023-05-09T08:20:11.612Z,25.97
2023-05-09T08:22:40.769Z,26.03
2023-05-09T08:25:10.140Z,25.80
2023-05-09T08:27:38.919Z,25.47
2023-05-09T08:30:08.964Z,26.63
2023-05-09T08:32:42.111Z,26.60
2023-05-09T08:35:10.902Z,25.93
2023-05-09T08:37:41.634Z,27.60
2023-05-09T08:40:11.562Z,26.03
2023-05-09T08:42:41.508Z,25.73
2023-05-09T08:45:12.259Z,26.87
2023-05-09T08:47:42.954Z,26.40
2023-05-09T08:50:15.186Z,27.53
2023-05-09T08:52:44.549Z,26.10
2023-05-09T08:55:13.767Z,27.83
2023-05-09T08:57:45.429Z,26.20
2023-05-09T09:00:17.194Z,27.10
2023-05-09T09:02:49.457Z,26.23
2023-05-09T09:05:39.568Z,27.77
2023-05-09T09:08:09.834Z,26.53
2023-05-09T09:10:41.858Z,24.77
2023-05-09T09:13:14.899Z,26.83
2023-05-09T09:15:46.346Z,25.23
2023-05-09T09:18:23.794Z,27.23
2023-05-09T09:21:06.354Z,25.60
2023-05-09T09:23:35.750Z,27.63
2023-05-09T09:26:05.225Z,27.27
2023-05-09T09:28:34.786Z,29.63
2023-05-09T09:31:03.750Z,26.57
2023-05-09T09:33:34.013Z,26.10
2023-05-09T09:36:04.472Z,25.17
2023-05-09T09:38:44.411Z,26.93
2023-05-09T09:41:14.418Z,25.90
2023-05-09T09:43:47.300Z,26.53
2023-05-09T09:46:18.426Z,26.87
2023-05-09T09:48:55.000Z,26.40
2023-05-09T09:51:25.945Z,25.23
2023-05-09T09:53:57.529Z,23.93
2023-05-09T09:56:40.425Z,26.30
2023-05-09T09:59:13.234Z,26.57
2023-05-09T10:01:59.195Z,27.13
2023-05-09T10:04:33.883Z,27.60
2023-05-09T10:07:05.386Z,27.97
2023-05-09T10:09:35.904Z,26.37
2023-05-09T10:12:08.052Z,26.20
2023-05-09T10:14:38.127Z,25.83
2023-05-09T10:17:10.060Z,25.13
2023-05-09T10:19:45.703Z,24.97
2023-05-09T10:22:18.017Z,22.03
2023-05-09T10:24:52.901Z,26.17
2023-05-09T10:27:28.543Z,25.97
2023-05-09T10:30:07.375Z,25.80
2023-05-09T10:32:43.504Z,24.83
2023-05-09T10:35:17.298Z,25.27
2023-05-09T10:37:47.372Z,24.33
2023-05-09T10:40:20.627Z,24.33
2023-05-09T10:42:49.565Z,24.43
2023-05-09T10:45:18.550Z,23.60
2023-05-09T10:47:49.967Z,23.80
2023-05-09T10:50:21.387Z,23.50
2023-05-09T10:53:11.635Z,23.17
2023-05-09T10:55:49.712Z,22.30
2023-05-09T10:58:23.356Z,21.00
2023-05-09T11:00:57.152Z,22.13
2023-05-09T11:03:27.251Z,21.77
2023-05-09T11:06:00.178Z,20.73
2023-05-09T11:08:29.959Z,22.00
2023-05-09T11:11:00.727Z,22.93
2023-05-09T11:13:33.593Z,22.37
2023-05-09T11:16:13.063Z,21.70
2023-05-09T11:18:53.183Z,21.13
2023-05-09T11:21:23.889Z,23.00
2023-05-09T11:23:55.280Z,21.23
2023-05-09T11:26:32.566Z,22.87
2023-05-09T11:29:02.813Z,22.83
2023-05-09T11:31:31.850Z,22.20
2023-05-09T11:34:06.441Z,21.33
2023-05-09T11:36:37.104Z,23.23
2023-05-09T11:39:07.784Z,22.23
2023-05-09T11:41:44.632Z,21.83
2023-05-09T11:44:17.991Z,23.10
2023-05-09T11:46:47.561Z,21.30
2023-05-09T11:49:17.182Z,22.13
2023-05-09T11:51:47.272Z,22.53
2023-05-09T11:54:15.960Z,23.10
2023-05-09T11:56:44.801Z,21.97
2023-05-09T11:59:18.108Z,23.63
2023-05-09T12:01:46.983Z,22.07
2023-05-09T12:04:17.704Z,22.60
2023-05-09T12:06:50.286Z,22.30
2023-05-09T12:09:20.064Z,20.30
2023-05-09T12:11:51.838Z,19.53
2023-05-09T12:14:28.691Z,21.40
2023-05-09T12:16:57.463Z,20.03
2023-05-09T12:19:27.187Z,20.03
2023-05-09T12:21:58.531Z,18.93
2023-05-09T12:24:27.703Z,19.53
2023-05-09T12:26:58.827Z,18.23
2023-05-09T12:29:28.025Z,20.13
2023-05-09T12:31:57.082Z,17.07
2023-05-09T12:34:32.617Z,19.40
2023-05-09T12:37:03.806Z,18.00
2023-05-09T12:39:32.564Z,18.47
2023-05-09T12:42:02.419Z,18.07
2023-05-09T12:44:34.038Z,19.33
2023-05-09T12:47:06.580Z,18.27
2023-05-09T12:49:38.550Z,18.00
2023-05-09T12:52:18.641Z,17.40
2023-05-09T12:54:49.109Z,17.87
2023-05-09T12:57:23.873Z,17.23
2023-05-09T12:59:52.803Z,18.43
2023-05-09T13:02:21.540Z,18.97
2023-05-09T13:04:50.250Z,16.57
2023-05-09T13:07:20.198Z,17.17
2023-05-09T13:09:58.075Z,17.80
2023-05-09T13:12:27.459Z,19.87
2023-05-09T13:14:56.159Z,17.20
2023-05-09T13:17:24.820Z,18.03
2023-05-09T13:19:53.794Z,17.93
2023-05-09T13:22:23.777Z,18.77
2023-05-09T13:24:52.596Z,17.67
2023-05-09T13:27:21.634Z,17.43
2023-05-09T13:29:50.207Z,16.87
2023-05-09T13:32:18.883Z,17.13
2023-05-09T13:34:47.617Z,17.53
2023-05-09T13:37:16.188Z,17.13
2023-05-09T13:39:46.465Z,17.57
2023-05-09T13:42:15.931Z,17.30
2023-05-09T13:44:45.900Z,18.27
2023-05-09T13:47:14.538Z,18.27
2023-05-09T13:49:43.121Z,19.53
2023-05-09T13:52:12.156Z,18.17
2023-05-09T13:54:40.875Z,18.73
2023-05-09T13:57:11.207Z,17.47
2023-05-09T13:59:41.249Z,18.50
2023-05-09T14:02:11.053Z,17.07
2023-05-09T14:04:39.887Z,15.80
2023-05-09T14:07:11.155Z,16.77
2023-05-09T14:09:40.166Z,16.00
2023-05-09T14:12:10.681Z,16.57
2023-05-09T14:14:39.269Z,16.40
2023-05-09T14:17:07.938Z,16.90
2023-05-09T14:19:36.652Z,17.80
2023-05-09T14:22:05.381Z,15.40
2023-05-09T14:24:36.057Z,17.90
2023-05-09T14:27:04.915Z,17.93
2023-05-09T14:29:37.604Z,18.50
2023-05-09T14:32:08.127Z,18.10
2023-05-09T14:34:36.992Z,17.47
2023-05-09T14:37:06.826Z,17.83
2023-05-09T14:39:36.464Z,18.37
2023-05-09T14:42:05.880Z,16.80
2023-05-09T14:44:35.886Z,17.70
2023-05-09T14:47:04.883Z,17.30
2023-05-09T14:49:33.957Z,18.33
2023-05-09T14:52:02.601Z,17.10
2023-05-09T14:54:31.719Z,18.17
2023-05-09T14:57:02.045Z,18.37
2023-05-09T14:59:30.756Z,17.20
2023-05-09T15:02:00.755Z,18.27
2023-05-09T15:04:31.085Z,16.10
2023-05-09T15:07:00.019Z,15.80
2023-05-09T15:09:28.620Z,17.20
2023-05-09T15:11:57.199Z,16.20
2023-05-09T15:14:25.807Z,18.43
2023-05-09T15:16:55.421Z,17.90
2023-05-09T15:19:26.403Z,17.10
2023-05-09T15:21:55.018Z,16.93
2023-05-09T15:24:23.906Z,17.30
2023-05-09T15:26:52.729Z,16.70
2023-05-09T15:29:21.938Z,16.57
2023-05-09T15:31:50.588Z,16.40
2023-05-09T15:34:19.194Z,17.33
2023-05-09T15:36:49.143Z,16.43
2023-05-09T15:39:17.761Z,17.13
2023-05-09T15:41:46.349Z,16.00
2023-05-09T15:44:16.323Z,17.70
2023-05-09T15:46:45.084Z,16.43
2023-05-09T15:49:13.736Z,17.80
2023-05-09T15:51:42.284Z,19.70
2023-05-09T15:54:12.302Z,17.47
2023-05-09T15:56:40.957Z,18.93
2023-05-09T15:59:09.920Z,18.10
2023-05-09T16:01:38.515Z,17.53
2023-05-09T16:04:07.732Z,18.53
2023-05-09T16:06:36.593Z,17.83
2023-05-09T16:09:05.481Z,18.27
2023-05-09T16:11:35.885Z,18.13
2023-05-09T16:14:05.619Z,19.60
2023-05-09T16:16:34.327Z,18.53
2023-05-09T16:19:04.006Z,18.63
2023-05-09T16:21:33.188Z,18.97
2023-05-09T16:24:03.234Z,17.33
2023-05-09T16:26:32.150Z,19.17
2023-05-09T16:29:02.621Z,19.30
2023-05-09T16:31:32.193Z,17.67
2023-05-09T16:34:02.001Z,20.23
2023-05-09T16:36:32.773Z,18.37
2023-05-09T16:39:01.388Z,18.93
2023-05-09T16:41:30.293Z,18.73
2023-05-09T16:43:59.127Z,18.03
2023-05-09T16:46:29.468Z,20.23
2023-05-09T16:48:58.042Z,18.30
2023-05-09T16:51:26.745Z,18.80
2023-05-09T16:53:55.443Z,20.13
2023-05-09T16:56:24.255Z,18.23
2023-05-09T16:58:52.901Z,18.20
2023-05-09T17:01:21.765Z,18.03
2023-05-09T17:03:51.785Z,19.00
2023-05-09T17:06:20.506Z,18.47
2023-05-09T17:08:49.733Z,17.90
2023-05-09T17:11:18.354Z,18.53
2023-05-09T17:13:47.801Z,17.87
2023-05-09T17:16:16.462Z,18.23
2023-05-09T17:18:47.464Z,17.50
2023-05-09T17:21:18.760Z,16.70
2023-05-09T17:23:47.348Z,17.27
2023-05-09T17:26:15.934Z,19.67
2023-05-09T17:28:44.983Z,17.33
2023-05-09T17:31:14.107Z,18.27
2023-05-09T17:33:44.314Z,18.17
2023-05-09T17:36:13.176Z,18.20
2023-05-09T17:38:43.540Z,18.37
2023-05-09T17:41:12.458Z,17.60
2023-05-09T17:43:41.180Z,17.37
2023-05-09T17:46:10.274Z,17.70
2023-05-09T17:48:39.093Z,19.70
2023-05-09T17:51:07.907Z,17.60
2023-05-09T17:53:36.721Z,19.93
2023-05-09T17:56:08.263Z,18.87
2023-05-09T17:58:37.127Z,18.73
2023-05-09T18:01:05.994Z,19.97
2023-05-09T18:03:35.048Z,18.33
2023-05-09T18:06:04.651Z,17.60
2023-05-09T18:08:33.368Z,17.50
2023-05-09T18:11:02.100Z,17.50
2023-05-09T18:13:32.176Z,16.97
2023-05-09T18:16:02.973Z,18.40
2023-05-09T18:18:32.522Z,16.60
2023-05-09T18:21:01.256Z,19.37
2023-05-09T18:23:30.417Z,18.60
2023-05-09T18:25:59.231Z,17.40
2023-05-09T18:28:28.906Z,18.67
2023-05-09T18:31:01.459Z,19.70
2023-05-09T18:33:31.386Z,17.73
2023-05-09T18:36:00.262Z,18.97
2023-05-09T18:38:28.947Z,18.97
2023-05-09T18:40:57.607Z,18.53
2023-05-09T18:43:26.362Z,20.10
2023-05-09T18:45:55.153Z,18.03
2023-05-09T18:48:28.011Z,18.80
2023-05-09T18:50:57.031Z,19.13
2023-05-09T18:53:26.695Z,18.37
2023-05-09T18:55:56.200Z,18.70
2023-05-09T18:58:25.759Z,18.87
2023-05-09T19:00:54.957Z,17.30
2023-05-09T19:03:25.465Z,17.90
2023-05-09T19:05:54.253Z,19.13
2023-05-09T19:08:26.351Z,18.10
2023-05-09T19:10:55.101Z,18.33
2023-05-09T19:13:29.852Z,19.63
2023-05-09T19:15:58.612Z,18.50
2023-05-09T19:18:29.878Z,19.37
2023-05-09T19:21:02.173Z,20.93
2023-05-09T19:23:31.682Z,19.03
2023-05-09T19:26:00.350Z,18.23
2023-05-09T19:28:29.060Z,19.03
2023-05-09T19:30:58.001Z,21.17
2023-05-09T19:33:28.488Z,18.90
2023-05-09T19:35:57.236Z,18.70
2023-05-09T19:38:25.968Z,19.27
2023-05-09T19:40:54.898Z,18.50
2023-05-09T19:43:26.301Z,19.27
2023-05-09T19:45:55.030Z,18.77
2023-05-09T19:48:25.875Z,18.00
2023-05-09T19:50:58.734Z,19.10
2023-05-09T19:53:27.477Z,18.40
2023-05-09T19:55:56.195Z,20.50
2023-05-09T19:58:25.012Z,18.13
2023-05-09T20:00:54.922Z,18.57
2023-05-09T20:03:25.463Z,17.87
2023-05-09T20:05:58.919Z,18.67
2023-05-09T20:08:28.030Z,18.73
2023-05-09T20:11:00.218Z,17.73
2023-05-09T20:13:29.045Z,18.70
2023-05-09T20:15:59.147Z,19.07
2023-05-09T20:18:33.278Z,18.97
2023-05-09T20:21:04.220Z,19.37
2023-05-09T20:23:32.921Z,18.93
2023-05-09T20:26:01.757Z,18.93
2023-05-09T20:28:30.502Z,19.33
2023-05-09T20:30:59.367Z,21.27
2023-05-09T20:33:28.138Z,18.87
2023-05-09T20:35:56.841Z,18.73
2023-05-09T20:38:29.801Z,20.77
2023-05-09T20:40:58.511Z,20.80
2023-05-09T20:43:27.214Z,19.90
2023-05-09T20:45:55.869Z,20.70
2023-05-09T20:48:24.633Z,19.30
2023-05-09T20:50:53.306Z,21.00
2023-05-09T20:53:26.348Z,22.40
2023-05-09T20:55:56.382Z,19.90
2023-05-09T20:58:25.129Z,19.77
2023-05-09T21:00:54.067Z,19.30
2023-05-09T21:03:23.081Z,19.80
2023-05-09T21:05:51.950Z,19.87
2023-05-09T21:08:20.707Z,19.73
2023-05-09T21:10:52.799Z,20.80
2023-05-09T21:13:25.756Z,17.57
2023-05-09T21:15:57.607Z,20.43
2023-05-09T21:18:26.938Z,20.67
2023-05-09T21:20:55.566Z,20.60
2023-05-09T21:23:24.513Z,19.57
2023-05-09T21:25:56.346Z,19.27
2023-05-09T21:28:26.805Z,21.23
2023-05-09T21:30:55.810Z,22.10
2023-05-09T21:33:24.770Z,20.47
2023-05-09T21:35:54.629Z,20.03
2023-05-09T21:38:26.570Z,20.80
2023-05-09T21:40:58.383Z,19.40
2023-05-09T21:43:29.005Z,19.20
2023-05-09T21:45:57.754Z,18.90
2023-05-09T21:48:28.716Z,18.07
2023-05-09T21:50:57.621Z,17.17
2023-05-09T21:53:28.467Z,18.43
2023-05-09T21:55:57.198Z,16.83
2023-05-09T21:58:25.926Z,16.80
2023-05-09T22:00:55.950Z,16.87
2023-05-09T22:03:24.947Z,17.90
2023-05-09T22:05:55.982Z,14.83
2023-05-09T22:08:24.999Z,16.10
2023-05-09T22:10:53.910Z,16.57
2023-05-09T22:13:22.811Z,16.67
2023-05-09T22:15:51.637Z,16.30
2023-05-09T22:18:21.613Z,18.53
2023-05-09T22:20:50.298Z,16.13
2023-05-09T22:23:21.814Z,16.03
2023-05-09T22:25:53.579Z,16.53
2023-05-09T22:28:25.407Z,15.10
2023-05-09T22:30:57.052Z,15.83
2023-05-09T22:33:27.445Z,14.83
2023-05-09T22:35:55.980Z,15.27
2023-05-09T22:38:24.625Z,15.00
2023-05-09T22:40:53.383Z,17.50
2023-05-09T22:43:22.535Z,14.73
2023-05-09T22:45:51.774Z,16.47
2023-05-09T22:48:20.442Z,15.20
2023-05-09T22:50:52.724Z,15.57
2023-05-09T22:53:21.549Z,15.43
2023-05-09T22:55:51.184Z,16.30
2023-05-09T22:58:20.185Z,16.03
2023-05-09T23:00:50.885Z,16.40
2023-05-09T23:03:19.754Z,15.17
2023-05-09T23:05:50.348Z,16.20
2023-05-09T23:08:19.183Z,16.17
2023-05-09T23:10:49.026Z,16.30
2023-05-09T23:13:17.683Z,16.10
2023-05-09T23:15:48.218Z,15.80
2023-05-09T23:18:16.927Z,16.30
2023-05-09T23:20:46.638Z,15.63
2023-05-09T23:23:16.615Z,17.67
2023-05-09T23:25:45.598Z,15.83
2023-05-09T23:28:14.296Z,16.10
2023-05-09T23:30:43.109Z,17.60
2023-05-09T23:33:14.423Z,17.00
2023-05-09T23:35:43.136Z,17.37
2023-05-09T23:38:49.258Z,16.80
2023-05-09T23:41:30.752Z,18.13
2023-05-09T23:43:59.484Z,19.43
2023-05-09T23:46:28.140Z,17.30
2023-05-09T23:48:59.176Z,18.17
2023-05-09T23:51:27.964Z,16.63
2023-05-09T23:53:57.090Z,17.17
2023-05-09T23:56:27.236Z,17.53
2023-05-09T23:58:55.884Z,17.73
